sensor_id;sensor_type;location;lat;lon;timestamp;temperature;humidity
16674;DHT22;8450;52.654;10.326;2023-02-28T07:15:16;-6.70;99.90
16674;DHT22;8450;52.654;10.326;2023-02-28T07:17:41;-6.70;99.90
16674;DHT22;8450;52.654;10.326;2023-02-28T07:20:07;-6.70;99.90
16674;DHT22;8450;52.654;10.326;2023-02-28T07:22:33;-6.70;99.90
16674;DHT22;8450;52.654;10.326;2023-02-28T07:24:59;-6.70;99.90
16674;DHT22;8450;52.654;10.326;2023-02-28T07:27:24;-6.60;99.90
16674;DHT22;8450;52.654;10.326;2023-02-28T07:29:51;-6.60;99.90
16674;DHT22;8450;52.654;10.326;2023-02-28T07:32:17;-6.60;99.90
16674;DHT22;8450;52.654;10.326;2023-02-28T07:34:44;-6.60;99.90
16674;DHT22;8450;52.654;10.326;2023-02-28T07:37:09;-6.50;99.90
16674;DHT22;8450;52.654;10.326;2023-02-28T07:39:35;-6.50;99.90
16674;DHT22;8450;52.654;10.326;2023-02-28T07:42:04;-6.40;99.90
16674;DHT22;8450;52.654;10.326;2023-02-28T07:44:32;-6.40;99.90
16674;DHT22;8450;52.654;10.326;2023-02-28T07:46:57;-6.30;99.90
16674;DHT22;8450;52.654;10.326;2023-02-28T07:49:23;-6.20;99.90
16674;DHT22;8450;52.654;10.326;2023-02-28T07:51:49;-6.10;99.90
16674;DHT22;8450;52.654;10.326;2023-02-28T07:54:14;-6.00;99.90
16674;DHT22;8450;52.654;10.326;2023-02-28T07:56:40;-5.90;99.90
16674;DHT22;8450;52.654;10.326;2023-02-28T07:59:05;-5.80;99.90
16674;DHT22;8450;52.654;10.326;2023-02-28T08:01:31;-5.60;99.90
16674;DHT22;8450;52.654;10.326;2023-02-28T08:03:56;-5.50;99.90
16674;DHT22;8450;52.654;10.326;2023-02-28T08:06:24;-5.30;99.90
16674;DHT22;8450;52.654;10.326;2023-02-28T08:08:50;-5.10;99.90
16674;DHT22;8450;52.654;10.326;2023-02-28T08:11:17;-4.90;99.90
16674;DHT22;8450;52.654;10.326;2023-02-28T08:13:44;-4.70;99.90
16674;DHT22;8450;52.654;10.326;2023-02-28T08:16:10;-4.50;99.90
16674;DHT22;8450;52.654;10.326;2023-02-28T08:18:36;-4.30;99.90
16674;DHT22;8450;52.654;10.326;2023-02-28T08:21:11;-4.10;99.90
16674;DHT22;8450;52.654;10.326;2023-02-28T08:23:36;-3.90;99.90
16674;DHT22;8450;52.654;10.326;2023-02-28T08:26:03;-3.70;99.90
16674;DHT22;8450;52.654;10.326;2023-02-28T08:28:29;-3.50;99.90
16674;DHT22;8450;52.654;10.326;2023-02-28T08:30:55;-3.30;99.90
16674;DHT22;8450;52.654;10.326;2023-02-28T08:33:21;-3.10;99.90
16674;DHT22;8450;52.654;10.326;2023-02-28T08:35:46;-3.00;99.90
16674;DHT22;8450;52.654;10.326;2023-02-28T08:38:12;-2.80;99.90
16674;DHT22;8450;52.654;10.326;2023-02-28T08:40:37;-2.60;99.90
16674;DHT22;8450;52.654;10.326;2023-02-28T08:43:03;-2.40;99.90
16674;DHT22;8450;52.654;10.326;2023-02-28T08:45:28;-2.30;99.90
16674;DHT22;8450;52.654;10.326;2023-02-28T08:47:55;-2.10;99.90
16674;DHT22;8450;52.654;10.326;2023-02-28T08:50:21;-1.80;99.90
16674;DHT22;8450;52.654;10.326;2023-02-28T08:52:46;-1.60;99.90
16674;DHT22;8450;52.654;10.326;2023-02-28T08:55:12;-1.40;99.90
16674;DHT22;8450;52.654;10.326;2023-02-28T08:57:38;-1.10;99.90
16674;DHT22;8450;52.654;10.326;2023-02-28T09:00:04;-0.80;99.90
16674;DHT22;8450;52.654;10.326;2023-02-28T09:02:32;-0.60;99.90
16674;DHT22;8450;52.654;10.326;2023-02-28T09:04:58;-0.30;99.90
16674;DHT22;8450;52.654;10.326;2023-02-28T09:07:24;-0.10;99.90
16674;DHT22;8450;52.654;10.326;2023-02-28T09:09:50;0.20;99.90
16674;DHT22;8450;52.654;10.326;2023-02-28T09:12:26;0.40;99.90
16674;DHT22;8450;52.654;10.326;2023-02-28T09:14:53;0.60;99.90
16674;DHT22;8450;52.654;10.326;2023-02-28T09:17:19;0.90;99.90
16674;DHT22;8450;52.654;10.326;2023-02-28T09:19:45;1.30;99.90
16674;DHT22;8450;52.654;10.326;2023-02-28T09:22:12;1.70;99.90
16674;DHT22;8450;52.654;10.326;2023-02-28T09:24:38;2.00;99.90
16674;DHT22;8450;52.654;10.326;2023-02-28T09:27:04;2.30;99.90
16674;DHT22;8450;52.654;10.326;2023-02-28T09:29:30;2.60;99.90
16674;DHT22;8450;52.654;10.326;2023-02-28T09:31:56;3.00;99.90
16674;DHT22;8450;52.654;10.326;2023-02-28T09:34:25;3.30;99.90
16674;DHT22;8450;52.654;10.326;2023-02-28T09:36:50;3.50;99.90
16674;DHT22;8450;52.654;10.326;2023-02-28T09:39:21;3.70;99.90
16674;DHT22;8450;52.654;10.326;2023-02-28T09:41:50;4.10;99.90
16674;DHT22;8450;52.654;10.326;2023-02-28T09:44:40;4.30;99.90
16674;DHT22;8450;52.654;10.326;2023-02-28T09:47:19;4.60;99.90
16674;DHT22;8450;52.654;10.326;2023-02-28T09:49:49;5.00;99.90
16674;DHT22;8450;52.654;10.326;2023-02-28T09:52:20;5.40;99.90
16674;DHT22;8450;52.654;10.326;2023-02-28T09:54:46;5.70;99.90
16674;DHT22;8450;52.654;10.326;2023-02-28T09:57:32;5.90;99.90
16674;DHT22;8450;52.654;10.326;2023-02-28T10:00:27;6.00;99.90
16674;DHT22;8450;52.654;10.326;2023-02-28T10:03:08;6.30;99.90
16674;DHT22;8450;52.654;10.326;2023-02-28T10:05:49;6.60;99.90
16674;DHT22;8450;52.654;10.326;2023-02-28T10:08:25;7.00;99.90
16674;DHT22;8450;52.654;10.326;2023-02-28T10:10:58;7.10;99.90
16674;DHT22;8450;52.654;10.326;2023-02-28T10:13:35;7.10;99.90
16674;DHT22;8450;52.654;10.326;2023-02-28T10:16:10;7.40;99.90
16674;DHT22;8450;52.654;10.326;2023-02-28T10:19:13;7.60;99.90
16674;DHT22;8450;52.654;10.326;2023-02-28T10:21:50;8.00;99.90
16674;DHT22;8450;52.654;10.326;2023-02-28T10:24:35;8.30;99.90
16674;DHT22;8450;52.654;10.326;2023-02-28T10:27:29;8.60;99.90
16674;DHT22;8450;52.654;10.326;2023-02-28T10:29:57;8.90;99.90
16674;DHT22;8450;52.654;10.326;2023-02-28T10:35:20;9.30;99.90
16674;DHT22;8450;52.654;10.326;2023-02-28T10:37:57;9.50;99.90
16674;DHT22;8450;52.654;10.326;2023-02-28T10:45:22;9.60;99.90
16674;DHT22;8450;52.654;10.326;2023-02-28T10:47:55;9.40;99.90
16674;DHT22;8450;52.654;10.326;2023-02-28T10:56:01;9.90;99.90
16674;DHT22;8450;52.654;10.326;2023-02-28T10:58:30;10.00;99.90
16674;DHT22;8450;52.654;10.326;2023-02-28T11:00:57;9.90;99.90
16674;DHT22;8450;52.654;10.326;2023-02-28T11:03:31;9.90;99.90
16674;DHT22;8450;52.654;10.326;2023-02-28T11:05:57;9.80;99.90
16674;DHT22;8450;52.654;10.326;2023-02-28T11:08:23;9.70;99.90
16674;DHT22;8450;52.654;10.326;2023-02-28T11:11:03;9.60;99.90
16674;DHT22;8450;52.654;10.326;2023-02-28T11:13:35;9.40;99.90
16674;DHT22;8450;52.654;10.326;2023-02-28T11:16:04;9.40;99.90
16674;DHT22;8450;52.654;10.326;2023-02-28T11:18:40;9.30;99.90
16674;DHT22;8450;52.654;10.326;2023-02-28T11:21:07;9.30;99.90
16674;DHT22;8450;52.654;10.326;2023-02-28T11:27:47;9.30;99.90
16674;DHT22;8450;52.654;10.326;2023-02-28T11:30:45;9.30;99.90
16674;DHT22;8450;52.654;10.326;2023-02-28T11:36:10;9.20;99.90
16674;DHT22;8450;52.654;10.326;2023-02-28T11:38:36;9.50;99.90
16674;DHT22;8450;52.654;10.326;2023-02-28T11:44:05;9.30;99.90
16674;DHT22;8450;52.654;10.326;2023-02-28T11:46:57;9.40;99.90
16674;DHT22;8450;52.654;10.326;2023-02-28T11:49:40;9.40;99.90
16674;DHT22;8450;52.654;10.326;2023-02-28T11:52:45;9.70;99.90
16674;DHT22;8450;52.654;10.326;2023-02-28T11:55:24;9.90;99.90
16674;DHT22;8450;52.654;10.326;2023-02-28T11:58:06;10.00;99.90
16674;DHT22;8450;52.654;10.326;2023-02-28T12:00:47;10.20;99.90
16674;DHT22;8450;52.654;10.326;2023-02-28T12:06:15;10.20;99.90
16674;DHT22;8450;52.654;10.326;2023-02-28T12:09:27;10.40;99.90
16674;DHT22;8450;52.654;10.326;2023-02-28T12:11:56;10.50;99.90
16674;DHT22;8450;52.654;10.326;2023-02-28T12:14:54;10.70;99.90
16674;DHT22;8450;52.654;10.326;2023-02-28T12:28:12;11.20;99.90
16674;DHT22;8450;52.654;10.326;2023-02-28T12:30:47;11.20;99.90
16674;DHT22;8450;52.654;10.326;2023-02-28T12:40:01;11.10;99.90
16674;DHT22;8450;52.654;10.326;2023-02-28T12:42:36;10.90;99.90
16674;DHT22;8450;52.654;10.326;2023-02-28T12:45:22;10.60;99.90
16674;DHT22;8450;52.654;10.326;2023-02-28T12:47:52;10.30;99.90
16674;DHT22;8450;52.654;10.326;2023-02-28T12:50:20;10.10;99.90
16674;DHT22;8450;52.654;10.326;2023-02-28T13:06:56;9.20;99.90
16674;DHT22;8450;52.654;10.326;2023-02-28T13:09:25;9.00;99.90
16674;DHT22;8450;52.654;10.326;2023-02-28T13:11:52;8.90;99.90
16674;DHT22;8450;52.654;10.326;2023-02-28T13:14:29;8.70;99.90
16674;DHT22;8450;52.654;10.326;2023-02-28T13:19:43;8.50;99.90
16674;DHT22;8450;52.654;10.326;2023-02-28T13:22:36;8.40;99.90
16674;DHT22;8450;52.654;10.326;2023-02-28T13:28:13;8.40;99.90
16674;DHT22;8450;52.654;10.326;2023-02-28T13:31:05;8.40;99.90
16674;DHT22;8450;52.654;10.326;2023-02-28T13:38:52;8.50;99.90
16674;DHT22;8450;52.654;10.326;2023-02-28T13:49:27;8.80;99.90
16674;DHT22;8450;52.654;10.326;2023-02-28T14:00:35;8.80;99.90
16674;DHT22;8450;52.654;10.326;2023-02-28T14:03:48;8.80;99.90
16674;DHT22;8450;52.654;10.326;2023-02-28T14:06:26;9.00;99.90
16674;DHT22;8450;52.654;10.326;2023-02-28T14:11:39;9.20;99.90
16674;DHT22;8450;52.654;10.326;2023-02-28T14:14:54;9.10;99.90
16674;DHT22;8450;52.654;10.326;2023-02-28T14:17:19;9.30;99.90
16674;DHT22;8450;52.654;10.326;2023-02-28T14:19:46;9.40;99.90
16674;DHT22;8450;52.654;10.326;2023-02-28T14:22:52;9.50;99.90
16674;DHT22;8450;52.654;10.326;2023-02-28T14:28:29;9.60;99.90
16674;DHT22;8450;52.654;10.326;2023-02-28T14:31:07;9.60;99.90
16674;DHT22;8450;52.654;10.326;2023-02-28T14:33:54;9.70;99.90
16674;DHT22;8450;52.654;10.326;2023-02-28T14:36:27;9.70;99.90
16674;DHT22;8450;52.654;10.326;2023-02-28T14:38:57;9.70;99.90
16674;DHT22;8450;52.654;10.326;2023-02-28T14:41:32;9.80;99.90
16674;DHT22;8450;52.654;10.326;2023-02-28T14:44:01;9.80;99.90
16674;DHT22;8450;52.654;10.326;2023-02-28T14:46:40;9.80;99.90
16674;DHT22;8450;52.654;10.326;2023-02-28T14:49:11;9.70;99.90
16674;DHT22;8450;52.654;10.326;2023-02-28T14:51:38;9.60;99.90
16674;DHT22;8450;52.654;10.326;2023-02-28T14:56:48;9.40;99.90
16674;DHT22;8450;52.654;10.326;2023-02-28T14:59:29;9.30;99.90
16674;DHT22;8450;52.654;10.326;2023-02-28T15:02:21;9.40;99.90
16674;DHT22;8450;52.654;10.326;2023-02-28T15:04:59;9.30;99.90
16674;DHT22;8450;52.654;10.326;2023-02-28T15:07:26;9.00;99.90
16674;DHT22;8450;52.654;10.326;2023-02-28T15:10:15;8.80;99.90
16674;DHT22;8450;52.654;10.326;2023-02-28T15:12:41;8.90;99.90
16674;DHT22;8450;52.654;10.326;2023-02-28T15:15:18;8.60;99.90
16674;DHT22;8450;52.654;10.326;2023-02-28T15:17:53;8.60;99.90
16674;DHT22;8450;52.654;10.326;2023-02-28T15:20:20;8.70;99.90
16674;DHT22;8450;52.654;10.326;2023-02-28T15:22:47;8.60;99.90
16674;DHT22;8450;52.654;10.326;2023-02-28T15:25:20;8.60;99.90
16674;DHT22;8450;52.654;10.326;2023-02-28T15:27:54;8.50;99.90
16674;DHT22;8450;52.654;10.326;2023-02-28T15:30:29;8.20;99.90
16674;DHT22;8450;52.654;10.326;2023-02-28T15:35:37;8.30;99.90
16674;DHT22;8450;52.654;10.326;2023-02-28T15:38:21;8.30;99.90
16674;DHT22;8450;52.654;10.326;2023-02-28T15:40:53;8.20;99.90
16674;DHT22;8450;52.654;10.326;2023-02-28T15:45:57;8.00;99.90
16674;DHT22;8450;52.654;10.326;2023-02-28T15:50:54;7.90;99.90
16674;DHT22;8450;52.654;10.326;2023-02-28T15:53:24;7.70;99.90
16674;DHT22;8450;52.654;10.326;2023-02-28T15:55:55;7.50;99.90
16674;DHT22;8450;52.654;10.326;2023-02-28T15:58:24;7.40;99.90
16674;DHT22;8450;52.654;10.326;2023-02-28T16:01:19;7.40;99.90
16674;DHT22;8450;52.654;10.326;2023-02-28T16:03:51;7.30;99.90
